sensor_id;sensor_type;location;lat;lon;timestamp;P1;durP1;ratioP1;P2;durP2;ratioP2
75655;SDS011;64252;51.094;13.714;2022-11-15T00:00:05;57.67;;;22.05;;
75655;SDS011;64252;51.094;13.714;2022-11-15T00:02:52;68.07;;;24.40;;
75655;SDS011;64252;51.094;13.714;2022-11-15T00:05:36;82.93;;;27.13;;
75655;SDS011;64252;51.094;13.714;2022-11-15T00:08:21;74.03;;;24.95;;
75655;SDS011;64252;51.094;13.714;2022-11-15T00:11:05;75.88;;;24.52;;
75655;SDS011;64252;51.094;13.714;2022-11-15T00:13:49;66.63;;;21.55;;
75655;SDS011;64252;51.094;13.714;2022-11-15T00:16:33;90.50;;;27.88;;
75655;SDS011;64252;51.094;13.714;2022-11-15T00:19:18;90.97;;;25.83;;
75655;SDS011;64252;51.094;13.714;2022-11-15T00:22:02;91.40;;;25.73;;
75655;SDS011;64252;51.094;13.714;2022-11-15T00:24:46;86.05;;;26.92;;
75655;SDS011;64252;51.094;13.714;2022-11-15T00:27:30;80.88;;;24.15;;
75655;SDS011;64252;51.094;13.714;2022-11-15T00:30:14;79.20;;;22.52;;
75655;SDS011;64252;51.094;13.714;2022-11-15T00:33:04;69.07;;;23.08;;
75655;SDS011;64252;51.094;13.714;2022-11-15T00:35:48;82.68;;;27.50;;
75655;SDS011;64252;51.094;13.714;2022-11-15T00:38:33;67.78;;;23.10;;
75655;SDS011;64252;51.094;13.714;2022-11-15T00:41:18;93.85;;;30.05;;
75655;SDS011;64252;51.094;13.714;2022-11-15T00:44:02;99.75;;;32.58;;
75655;SDS011;64252;51.094;13.714;2022-11-15T00:46:45;84.05;;;27.60;;
75655;SDS011;64252;51.094;13.714;2022-11-15T00:49:29;97.60;;;33.55;;
75655;SDS011;64252;51.094;13.714;2022-11-15T00:52:13;90.13;;;28.70;;
75655;SDS011;64252;51.094;13.714;2022-11-15T00:54:57;80.60;;;25.10;;
75655;SDS011;64252;51.094;13.714;2022-11-15T00:57:41;75.45;;;30.05;;
75655;SDS011;64252;51.094;13.714;2022-11-15T01:00:25;90.47;;;31.60;;
75655;SDS011;64252;51.094;13.714;2022-11-15T01:03:09;70.15;;;25.38;;
75655;SDS011;64252;51.094;13.714;2022-11-15T01:05:53;81.22;;;31.00;;
75655;SDS011;64252;51.094;13.714;2022-11-15T01:08:40;83.00;;;29.15;;
75655;SDS011;64252;51.094;13.714;2022-11-15T01:11:24;82.97;;;29.17;;
75655;SDS011;64252;51.094;13.714;2022-11-15T01:14:08;87.38;;;33.58;;
75655;SDS011;64252;51.094;13.714;2022-11-15T01:16:52;74.65;;;28.75;;
75655;SDS011;64252;51.094;13.714;2022-11-15T01:19:36;72.85;;;29.67;;
75655;SDS011;64252;51.094;13.714;2022-11-15T01:22:20;68.10;;;28.52;;
75655;SDS011;64252;51.094;13.714;2022-11-15T01:25:03;55.85;;;20.73;;
75655;SDS011;64252;51.094;13.714;2022-11-15T01:27:47;63.60;;;24.85;;
75655;SDS011;64252;51.094;13.714;2022-11-15T01:30:31;80.75;;;30.55;;
75655;SDS011;64252;51.094;13.714;2022-11-15T01:33:15;78.28;;;28.70;;
75655;SDS011;64252;51.094;13.714;2022-11-15T01:36:02;85.47;;;28.20;;
75655;SDS011;64252;51.094;13.714;2022-11-15T01:38:54;61.40;;;24.77;;
75655;SDS011;64252;51.094;13.714;2022-11-15T01:41:39;92.50;;;31.63;;
75655;SDS011;64252;51.094;13.714;2022-11-15T01:47:26;78.53;;;28.30;;
75655;SDS011;64252;51.094;13.714;2022-11-15T01:50:16;61.85;;;25.50;;
75655;SDS011;64252;51.094;13.714;2022-11-15T01:53:03;76.20;;;28.52;;
75655;SDS011;64252;51.094;13.714;2022-11-15T01:55:47;81.43;;;30.52;;
75655;SDS011;64252;51.094;13.714;2022-11-15T01:58:31;69.82;;;28.80;;
75655;SDS011;64252;51.094;13.714;2022-11-15T02:01:15;65.78;;;28.35;;
75655;SDS011;64252;51.094;13.714;2022-11-15T02:04:00;63.35;;;24.70;;
75655;SDS011;64252;51.094;13.714;2022-11-15T02:06:49;61.22;;;26.02;;
75655;SDS011;64252;51.094;13.714;2022-11-15T02:09:35;57.10;;;24.77;;
75655;SDS011;64252;51.094;13.714;2022-11-15T02:12:21;63.85;;;25.67;;
75655;SDS011;64252;51.094;13.714;2022-11-15T02:15:06;65.93;;;26.00;;
75655;SDS011;64252;51.094;13.714;2022-11-15T02:18:12;70.47;;;29.25;;
75655;SDS011;64252;51.094;13.714;2022-11-15T02:21:11;62.20;;;23.30;;
75655;SDS011;64252;51.094;13.714;2022-11-15T02:33:53;67.75;;;25.80;;
75655;SDS011;64252;51.094;13.714;2022-11-15T02:39:48;61.83;;;24.60;;
75655;SDS011;64252;51.094;13.714;2022-11-15T02:42:33;63.78;;;26.45;;
75655;SDS011;64252;51.094;13.714;2022-11-15T02:45:40;65.72;;;25.88;;
75655;SDS011;64252;51.094;13.714;2022-11-15T02:48:30;78.07;;;29.02;;
75655;SDS011;64252;51.094;13.714;2022-11-15T02:51:15;59.80;;;24.20;;
75655;SDS011;64252;51.094;13.714;2022-11-15T02:54:00;49.75;;;20.20;;
75655;SDS011;64252;51.094;13.714;2022-11-15T02:56:44;55.90;;;21.25;;
75655;SDS011;64252;51.094;13.714;2022-11-15T03:09:24;56.08;;;22.20;;
75655;SDS011;64252;51.094;13.714;2022-11-15T03:12:45;55.65;;;22.65;;
75655;SDS011;64252;51.094;13.714;2022-11-15T03:18:29;52.72;;;19.95;;
75655;SDS011;64252;51.094;13.714;2022-11-15T03:21:17;53.45;;;22.02;;
75655;SDS011;64252;51.094;13.714;2022-11-15T03:24:03;58.03;;;20.75;;
75655;SDS011;64252;51.094;13.714;2022-11-15T03:26:49;39.47;;;17.85;;
75655;SDS011;64252;51.094;13.714;2022-11-15T03:29:37;45.08;;;18.85;;
75655;SDS011;64252;51.094;13.714;2022-11-15T03:32:31;50.85;;;19.85;;
75655;SDS011;64252;51.094;13.714;2022-11-15T03:35:24;48.13;;;19.10;;
75655;SDS011;64252;51.094;13.714;2022-11-15T03:41:09;46.42;;;18.15;;
75655;SDS011;64252;51.094;13.714;2022-11-15T03:44:13;49.25;;;18.90;;
75655;SDS011;64252;51.094;13.714;2022-11-15T03:47:38;63.10;;;22.75;;
75655;SDS011;64252;51.094;13.714;2022-11-15T03:50:20;45.53;;;17.38;;
75655;SDS011;64252;51.094;13.714;2022-11-15T03:53:06;33.53;;;14.02;;
75655;SDS011;64252;51.094;13.714;2022-11-15T03:55:50;44.67;;;17.83;;
75655;SDS011;64252;51.094;13.714;2022-11-15T03:58:34;50.80;;;19.58;;
75655;SDS011;64252;51.094;13.714;2022-11-15T04:01:18;43.45;;;17.23;;
75655;SDS011;64252;51.094;13.714;2022-11-15T04:04:02;47.08;;;18.52;;
75655;SDS011;64252;51.094;13.714;2022-11-15T04:06:46;49.55;;;18.45;;
75655;SDS011;64252;51.094;13.714;2022-11-15T04:09:30;46.95;;;17.17;;
75655;SDS011;64252;51.094;13.714;2022-11-15T04:12:14;60.40;;;21.58;;
75655;SDS011;64252;51.094;13.714;2022-11-15T04:15:15;47.95;;;19.05;;
75655;SDS011;64252;51.094;13.714;2022-11-15T04:18:01;55.92;;;20.90;;
75655;SDS011;64252;51.094;13.714;2022-11-15T04:20:44;71.43;;;25.25;;
75655;SDS011;64252;51.094;13.714;2022-11-15T04:23:47;43.75;;;15.85;;
75655;SDS011;64252;51.094;13.714;2022-11-15T04:26:50;54.80;;;19.02;;
75655;SDS011;64252;51.094;13.714;2022-11-15T04:29:34;55.90;;;19.02;;
75655;SDS011;64252;51.094;13.714;2022-11-15T04:32:18;56.92;;;20.60;;
75655;SDS011;64252;51.094;13.714;2022-11-15T04:35:02;53.40;;;18.48;;
75655;SDS011;64252;51.094;13.714;2022-11-15T04:37:46;61.13;;;21.23;;
75655;SDS011;64252;51.094;13.714;2022-11-15T04:40:30;70.32;;;22.48;;
75655;SDS011;64252;51.094;13.714;2022-11-15T04:43:14;70.78;;;23.58;;
75655;SDS011;64252;51.094;13.714;2022-11-15T04:45:58;74.93;;;23.70;;
75655;SDS011;64252;51.094;13.714;2022-11-15T04:48:42;69.78;;;21.27;;
75655;SDS011;64252;51.094;13.714;2022-11-15T04:51:26;67.72;;;22.90;;
75655;SDS011;64252;51.094;13.714;2022-11-15T04:54:10;48.92;;;18.13;;
75655;SDS011;64252;51.094;13.714;2022-11-15T04:56:54;61.67;;;19.45;;
75655;SDS011;64252;51.094;13.714;2022-11-15T04:59:38;61.35;;;21.27;;
75655;SDS011;64252;51.094;13.714;2022-11-15T05:02:22;66.57;;;22.60;;
75655;SDS011;64252;51.094;13.714;2022-11-15T05:05:06;69.20;;;19.80;;
75655;SDS011;64252;51.094;13.714;2022-11-15T05:07:50;60.00;;;16.65;;
75655;SDS011;64252;51.094;13.714;2022-11-15T05:10:35;56.00;;;17.80;;
75655;SDS011;64252;51.094;13.714;2022-11-15T05:13:19;59.53;;;20.17;;
75655;SDS011;64252;51.094;13.714;2022-11-15T05:16:03;61.72;;;21.13;;
75655;SDS011;64252;51.094;13.714;2022-11-15T05:18:50;54.30;;;16.65;;
75655;SDS011;64252;51.094;13.714;2022-11-15T05:21:34;62.83;;;18.15;;
75655;SDS011;64252;51.094;13.714;2022-11-15T05:24:19;67.07;;;20.13;;
75655;SDS011;64252;51.094;13.714;2022-11-15T05:27:03;63.42;;;19.15;;
75655;SDS011;64252;51.094;13.714;2022-11-15T05:29:47;68.82;;;21.48;;
75655;SDS011;64252;51.094;13.714;2022-11-15T05:32:30;68.53;;;21.20;;
75655;SDS011;64252;51.094;13.714;2022-11-15T05:38:48;60.63;;;18.30;;
75655;SDS011;64252;51.094;13.714;2022-11-15T05:41:36;60.65;;;20.33;;
75655;SDS011;64252;51.094;13.714;2022-11-15T05:44:24;64.47;;;21.00;;
75655;SDS011;64252;51.094;13.714;2022-11-15T05:47:10;63.42;;;19.30;;
75655;SDS011;64252;51.094;13.714;2022-11-15T05:50:00;75.57;;;21.77;;
75655;SDS011;64252;51.094;13.714;2022-11-15T05:52:44;66.32;;;18.20;;
75655;SDS011;64252;51.094;13.714;2022-11-15T05:55:29;69.38;;;18.88;;
75655;SDS011;64252;51.094;13.714;2022-11-15T05:58:14;72.38;;;22.45;;
75655;SDS011;64252;51.094;13.714;2022-11-15T06:00:58;65.35;;;19.48;;
75655;SDS011;64252;51.094;13.714;2022-11-15T06:03:43;75.80;;;23.15;;
75655;SDS011;64252;51.094;13.714;2022-11-15T06:06:28;78.53;;;21.02;;
75655;SDS011;64252;51.094;13.714;2022-11-15T06:09:12;90.80;;;24.80;;
75655;SDS011;64252;51.094;13.714;2022-11-15T06:11:56;68.38;;;20.80;;
75655;SDS011;64252;51.094;13.714;2022-11-15T06:14:40;70.75;;;21.70;;
75655;SDS011;64252;51.094;13.714;2022-11-15T06:17:24;60.50;;;18.23;;
75655;SDS011;64252;51.094;13.714;2022-11-15T06:20:08;76.00;;;21.67;;
75655;SDS011;64252;51.094;13.714;2022-11-15T06:22:56;62.08;;;18.05;;
75655;SDS011;64252;51.094;13.714;2022-11-15T06:25:44;76.90;;;21.00;;
75655;SDS011;64252;51.094;13.714;2022-11-15T06:28:29;81.03;;;23.48;;
75655;SDS011;64252;51.094;13.714;2022-11-15T06:31:14;80.80;;;20.27;;
75655;SDS011;64252;51.094;13.714;2022-11-15T06:33:58;61.25;;;19.08;;
75655;SDS011;64252;51.094;13.714;2022-11-15T06:36:42;76.32;;;19.48;;
75655;SDS011;64252;51.094;13.714;2022-11-15T06:39:25;95.57;;;25.80;;
75655;SDS011;64252;51.094;13.714;2022-11-15T06:42:09;75.20;;;18.35;;
75655;SDS011;64252;51.094;13.714;2022-11-15T06:44:53;75.00;;;19.42;;
75655;SDS011;64252;51.094;13.714;2022-11-15T06:47:44;68.85;;;18.58;;
75655;SDS011;64252;51.094;13.714;2022-11-15T06:50:30;74.93;;;21.52;;
75655;SDS011;64252;51.094;13.714;2022-11-15T06:53:14;68.80;;;20.40;;
75655;SDS011;64252;51.094;13.714;2022-11-15T06:55:58;88.18;;;21.77;;
75655;SDS011;64252;51.094;13.714;2022-11-15T06:58:46;69.38;;;20.40;;
75655;SDS011;64252;51.094;13.714;2022-11-15T07:01:30;102.07;;;27.90;;
75655;SDS011;64252;51.094;13.714;2022-11-15T07:04:14;100.57;;;27.27;;
75655;SDS011;64252;51.094;13.714;2022-11-15T07:06:58;92.90;;;26.60;;
75655;SDS011;64252;51.094;13.714;2022-11-15T07:09:42;91.78;;;24.40;;
75655;SDS011;64252;51.094;13.714;2022-11-15T07:12:27;83.43;;;24.90;;
75655;SDS011;64252;51.094;13.714;2022-11-15T07:15:10;70.90;;;23.40;;
75655;SDS011;64252;51.094;13.714;2022-11-15T07:17:54;62.53;;;21.58;;
75655;SDS011;64252;51.094;13.714;2022-11-15T07:20:38;68.88;;;20.98;;
75655;SDS011;64252;51.094;13.714;2022-11-15T07:23:23;63.45;;;22.55;;
75655;SDS011;64252;51.094;13.714;2022-11-15T07:26:07;65.68;;;23.83;;
75655;SDS011;64252;51.094;13.714;2022-11-15T07:28:51;68.03;;;21.67;;
75655;SDS011;64252;51.094;13.714;2022-11-15T07:31:35;64.63;;;21.95;;
75655;SDS011;64252;51.094;13.714;2022-11-15T07:34:19;63.60;;;22.42;;
75655;SDS011;64252;51.094;13.714;2022-11-15T07:37:03;70.30;;;23.33;;
75655;SDS011;64252;51.094;13.714;2022-11-15T07:39:47;53.67;;;20.38;;
75655;SDS011;64252;51.094;13.714;2022-11-15T07:42:31;57.70;;;21.88;;
75655;SDS011;64252;51.094;13.714;2022-11-15T07:45:39;52.13;;;18.05;;
75655;SDS011;64252;51.094;13.714;2022-11-15T07:48:27;51.92;;;19.83;;
75655;SDS011;64252;51.094;13.714;2022-11-15T07:51:12;55.60;;;21.83;;
75655;SDS011;64252;51.094;13.714;2022-11-15T07:53:57;68.20;;;27.20;;
75655;SDS011;64252;51.094;13.714;2022-11-15T07:56:41;44.92;;;19.25;;
75655;SDS011;64252;51.094;13.714;2022-11-15T07:59:25;37.08;;;14.88;;
75655;SDS011;64252;51.094;13.714;2022-11-15T08:02:09;46.97;;;18.42;;
75655;SDS011;64252;51.094;13.714;2022-11-15T08:04:53;53.05;;;21.25;;
75655;SDS011;64252;51.094;13.714;2022-11-15T08:07:37;45.78;;;18.73;;
75655;SDS011;64252;51.094;13.714;2022-11-15T08:10:21;41.90;;;17.55;;
75655;SDS011;64252;51.094;13.714;2022-11-15T08:13:07;40.83;;;18.80;;
75655;SDS011;64252;51.094;13.714;2022-11-15T08:15:52;38.10;;;17.27;;
75655;SDS011;64252;51.094;13.714;2022-11-15T08:18:40;38.60;;;15.95;;
75655;SDS011;64252;51.094;13.714;2022-11-15T08:21:24;35.30;;;15.18;;
75655;SDS011;64252;51.094;13.714;2022-11-15T08:24:09;33.00;;;15.93;;
75655;SDS011;64252;51.094;13.714;2022-11-15T08:26:54;28.60;;;13.57;;
75655;SDS011;64252;51.094;13.714;2022-11-15T08:29:38;34.28;;;16.55;;
75655;SDS011;64252;51.094;13.714;2022-11-15T08:32:22;30.75;;;16.08;;
75655;SDS011;64252;51.094;13.714;2022-11-15T08:35:06;30.33;;;14.77;;
75655;SDS011;64252;51.094;13.714;2022-11-15T08:37:52;29.83;;;14.60;;
75655;SDS011;64252;51.094;13.714;2022-11-15T08:40:37;23.50;;;11.95;;
75655;SDS011;64252;51.094;13.714;2022-11-15T08:43:21;27.25;;;14.18;;
75655;SDS011;64252;51.094;13.714;2022-11-15T08:46:05;31.42;;;15.20;;
75655;SDS011;64252;51.094;13.714;2022-11-15T08:48:49;24.75;;;12.18;;
75655;SDS011;64252;51.094;13.714;2022-11-15T08:51:33;28.60;;;13.18;;
75655;SDS011;64252;51.094;13.714;2022-11-15T08:54:17;27.27;;;12.80;;
75655;SDS011;64252;51.094;13.714;2022-11-15T08:57:01;28.98;;;13.65;;
75655;SDS011;64252;51.094;13.714;2022-11-15T08:59:45;28.15;;;13.20;;
75655;SDS011;64252;51.094;13.714;2022-11-15T09:02:29;29.75;;;15.30;;
75655;SDS011;64252;51.094;13.714;2022-11-15T09:05:12;28.55;;;14.52;;
75655;SDS011;64252;51.094;13.714;2022-11-15T09:07:56;25.58;;;13.52;;
75655;SDS011;64252;51.094;13.714;2022-11-15T09:10:40;24.77;;;12.10;;
75655;SDS011;64252;51.094;13.714;2022-11-15T09:13:24;26.77;;;13.45;;
75655;SDS011;64252;51.094;13.714;2022-11-15T09:16:08;26.55;;;12.60;;
75655;SDS011;64252;51.094;13.714;2022-11-15T09:18:52;21.15;;;11.23;;
75655;SDS011;64252;51.094;13.714;2022-11-15T09:21:37;23.30;;;13.10;;
75655;SDS011;64252;51.094;13.714;2022-11-15T09:24:21;24.70;;;12.73;;
75655;SDS011;64252;51.094;13.714;2022-11-15T09:27:06;23.55;;;12.77;;
75655;SDS011;64252;51.094;13.714;2022-11-15T09:29:50;21.63;;;10.63;;
75655;SDS011;64252;51.094;13.714;2022-11-15T09:32:33;24.98;;;11.85;;
75655;SDS011;64252;51.094;13.714;2022-11-15T09:35:17;24.40;;;12.18;;
75655;SDS011;64252;51.094;13.714;2022-11-15T09:38:02;22.27;;;12.32;;
75655;SDS011;64252;51.094;13.714;2022-11-15T09:40:50;24.70;;;12.25;;
75655;SDS011;64252;51.094;13.714;2022-11-15T09:49:14;21.40;;;11.88;;
75655;SDS011;64252;51.094;13.714;2022-11-15T09:51:58;25.13;;;12.40;;
75655;SDS011;64252;51.094;13.714;2022-11-15T09:54:28;23.27;;;12.68;;
75655;SDS011;64252;51.094;13.714;2022-11-15T09:57:06;20.98;;;11.02;;
75655;SDS011;64252;51.094;13.714;2022-11-15T10:05:29;22.48;;;12.50;;
75655;SDS011;64252;51.094;13.714;2022-11-15T10:08:30;22.13;;;12.02;;
75655;SDS011;64252;51.094;13.714;2022-11-15T10:10:51;22.38;;;10.98;;
75655;SDS011;64252;51.094;13.714;2022-11-15T10:15:46;20.70;;;10.00;;
75655;SDS011;64252;51.094;13.714;2022-11-15T10:18:31;21.42;;;11.13;;
75655;SDS011;64252;51.094;13.714;2022-11-15T10:21:20;19.92;;;10.05;;
75655;SDS011;64252;51.094;13.714;2022-11-15T10:23:50;17.20;;;9.00;;
75655;SDS011;64252;51.094;13.714;2022-11-15T10:26:17;24.10;;;11.13;;
75655;SDS011;64252;51.094;13.714;2022-11-15T10:28:42;16.80;;;9.70;;
75655;SDS011;64252;51.094;13.714;2022-11-15T10:31:24;22.00;;;10.00;;
75655;SDS011;64252;51.094;13.714;2022-11-15T10:33:51;22.42;;;10.80;;
75655;SDS011;64252;51.094;13.714;2022-11-15T10:36:36;19.42;;;10.07;;
75655;SDS011;64252;51.094;13.714;2022-11-15T10:39:01;22.17;;;11.52;;
75655;SDS011;64252;51.094;13.714;2022-11-15T10:41:29;22.65;;;11.77;;
75655;SDS011;64252;51.094;13.714;2022-11-15T10:46:31;22.13;;;10.65;;
75655;SDS011;64252;51.094;13.714;2022-11-15T10:49:17;19.60;;;10.43;;
75655;SDS011;64252;51.094;13.714;2022-11-15T10:51:57;23.08;;;11.90;;
75655;SDS011;64252;51.094;13.714;2022-11-15T10:54:39;18.67;;;10.38;;
75655;SDS011;64252;51.094;13.714;2022-11-15T10:59:48;21.20;;;10.73;;
75655;SDS011;64252;51.094;13.714;2022-11-15T11:05:00;24.48;;;13.32;;
75655;SDS011;64252;51.094;13.714;2022-11-15T11:07:30;35.65;;;28.45;;
75655;SDS011;64252;51.094;13.714;2022-11-15T11:09:58;28.65;;;16.88;;
75655;SDS011;64252;51.094;13.714;2022-11-15T11:12:31;21.02;;;12.25;;
75655;SDS011;64252;51.094;13.714;2022-11-15T11:14:58;21.17;;;12.63;;
75655;SDS011;64252;51.094;13.714;2022-11-15T11:18:28;21.42;;;12.15;;
75655;SDS011;64252;51.094;13.714;2022-11-15T11:20:51;24.10;;;15.20;;
75655;SDS011;64252;51.094;13.714;2022-11-15T11:26:40;21.75;;;12.90;;
75655;SDS011;64252;51.094;13.714;2022-11-15T11:37:47;22.27;;;11.32;;
75655;SDS011;64252;51.094;13.714;2022-11-15T11:43:14;20.35;;;11.30;;
75655;SDS011;64252;51.094;13.714;2022-11-15T11:46:12;18.95;;;9.52;;
75655;SDS011;64252;51.094;13.714;2022-11-15T11:49:01;19.70;;;10.30;;
75655;SDS011;64252;51.094;13.714;2022-11-15T11:51:53;20.42;;;9.65;;
75655;SDS011;64252;51.094;13.714;2022-11-15T11:57:03;14.73;;;8.25;;
75655;SDS011;64252;51.094;13.714;2022-11-15T12:02:17;23.65;;;11.30;;
75655;SDS011;64252;51.094;13.714;2022-11-15T12:04:51;17.80;;;9.48;;
75655;SDS011;64252;51.094;13.714;2022-11-15T12:07:25;16.70;;;9.32;;
75655;SDS011;64252;51.094;13.714;2022-11-15T12:12:49;18.13;;;10.05;;
75655;SDS011;64252;51.094;13.714;2022-11-15T12:15:21;20.80;;;11.00;;
75655;SDS011;64252;51.094;13.714;2022-11-15T12:17:49;20.25;;;9.20;;
75655;SDS011;64252;51.094;13.714;2022-11-15T12:25:22;20.48;;;10.93;;
75655;SDS011;64252;51.094;13.714;2022-11-15T12:28:06;19.30;;;9.90;;
75655;SDS011;64252;51.094;13.714;2022-11-15T12:31:11;20.23;;;10.23;;
75655;SDS011;64252;51.094;13.714;2022-11-15T12:36:50;15.23;;;8.32;;
75655;SDS011;64252;51.094;13.714;2022-11-15T12:39:08;20.95;;;10.07;;
75655;SDS011;64252;51.094;13.714;2022-11-15T12:41:37;20.48;;;10.50;;
75655;SDS011;64252;51.094;13.714;2022-11-15T12:44:05;21.23;;;10.52;;
75655;SDS011;64252;51.094;13.714;2022-11-15T12:57:35;20.48;;;10.18;;
75655;SDS011;64252;51.094;13.714;2022-11-15T13:00:00;19.55;;;11.02;;
75655;SDS011;64252;51.094;13.714;2022-11-15T13:02:38;14.90;;;8.10;;
75655;SDS011;64252;51.094;13.714;2022-11-15T13:17:41;19.88;;;10.05;;
75655;SDS011;64252;51.094;13.714;2022-11-15T13:22:41;17.63;;;10.27;;
75655;SDS011;64252;51.094;13.714;2022-11-15T13:28:31;16.63;;;8.40;;
75655;SDS011;64252;51.094;13.714;2022-11-15T13:31:26;16.63;;;8.93;;
75655;SDS011;64252;51.094;13.714;2022-11-15T13:33:52;19.50;;;10.50;;
75655;SDS011;64252;51.094;13.714;2022-11-15T13:36:21;18.38;;;9.57;;
75655;SDS011;64252;51.094;13.714;2022-11-15T13:39:02;17.48;;;9.73;;
75655;SDS011;64252;51.094;13.714;2022-11-15T13:41:30;22.67;;;11.15;;
75655;SDS011;64252;51.094;13.714;2022-11-15T13:43:58;22.33;;;10.95;;
75655;SDS011;64252;51.094;13.714;2022-11-15T13:46:25;20.35;;;11.25;;
75655;SDS011;64252;51.094;13.714;2022-11-15T13:48:59;20.38;;;10.82;;
75655;SDS011;64252;51.094;13.714;2022-11-15T13:51:40;18.05;;;9.77;;
75655;SDS011;64252;51.094;13.714;2022-11-15T13:56:52;21.38;;;11.45;;
75655;SDS011;64252;51.094;13.714;2022-11-15T14:01:51;21.08;;;10.98;;
75655;SDS011;64252;51.094;13.714;2022-11-15T14:04:19;18.90;;;9.98;;
75655;SDS011;64252;51.094;13.714;2022-11-15T14:06:48;18.67;;;9.68;;
75655;SDS011;64252;51.094;13.714;2022-11-15T14:11:56;22.42;;;11.55;;
75655;SDS011;64252;51.094;13.714;2022-11-15T14:14:27;22.85;;;11.70;;
75655;SDS011;64252;51.094;13.714;2022-11-15T14:16:57;20.83;;;11.13;;
75655;SDS011;64252;51.094;13.714;2022-11-15T14:22:10;23.25;;;10.48;;
75655;SDS011;64252;51.094;13.714;2022-11-15T14:25:03;24.30;;;11.32;;
75655;SDS011;64252;51.094;13.714;2022-11-15T14:27:38;20.98;;;11.00;;
75655;SDS011;64252;51.094;13.714;2022-11-15T14:30:05;19.83;;;11.13;;
75655;SDS011;64252;51.094;13.714;2022-11-15T14:33:11;19.45;;;9.45;;
75655;SDS011;64252;51.094;13.714;2022-11-15T14:35:23;19.52;;;10.20;;
75655;SDS011;64252;51.094;13.714;2022-11-15T14:37:48;18.85;;;9.85;;
75655;SDS011;64252;51.094;13.714;2022-11-15T14:40:18;23.92;;;11.70;;
75655;SDS011;64252;51.094;13.714;2022-11-15T14:42:46;22.88;;;11.25;;
75655;SDS011;64252;51.094;13.714;2022-11-15T14:45:14;20.02;;;10.13;;
75655;SDS011;64252;51.094;13.714;2022-11-15T14:47:45;20.95;;;10.07;;
75655;SDS011;64252;51.094;13.714;2022-11-15T14:50:11;18.90;;;9.63;;
75655;SDS011;64252;51.094;13.714;2022-11-15T14:52:38;23.63;;;12.05;;
75655;SDS011;64252;51.094;13.714;2022-11-15T14:55:11;20.98;;;10.48;;
75655;SDS011;64252;51.094;13.714;2022-11-15T14:57:42;20.50;;;10.35;;
75655;SDS011;64252;51.094;13.714;2022-11-15T15:00:07;21.33;;;10.50;;
75655;SDS011;64252;51.094;13.714;2022-11-15T15:02:38;21.10;;;10.48;;
75655;SDS011;64252;51.094;13.714;2022-11-15T15:05:13;20.38;;;9.77;;
75655;SDS011;64252;51.094;13.714;2022-11-15T15:07:40;24.08;;;12.50;;
75655;SDS011;64252;51.094;13.714;2022-11-15T15:10:06;24.35;;;11.65;;
75655;SDS011;64252;51.094;13.714;2022-11-15T15:12:32;21.35;;;11.18;;
75655;SDS011;64252;51.094;13.714;2022-11-15T15:14:58;22.50;;;12.55;;
75655;SDS011;64252;51.094;13.714;2022-11-15T15:17:23;25.58;;;12.35;;
75655;SDS011;64252;51.094;13.714;2022-11-15T15:19:49;24.75;;;12.65;;
75655;SDS011;64252;51.094;13.714;2022-11-15T15:22:15;29.00;;;14.45;;
75655;SDS011;64252;51.094;13.714;2022-11-15T15:24:45;26.10;;;13.13;;
75655;SDS011;64252;51.094;13.714;2022-11-15T15:27:11;23.75;;;12.55;;
75655;SDS011;64252;51.094;13.714;2022-11-15T15:29:37;22.80;;;11.38;;
75655;SDS011;64252;51.094;13.714;2022-11-15T15:32:03;22.25;;;10.70;;
75655;SDS011;64252;51.094;13.714;2022-11-15T15:34:29;24.77;;;12.07;;
75655;SDS011;64252;51.094;13.714;2022-11-15T15:39:34;22.80;;;11.52;;
75655;SDS011;64252;51.094;13.714;2022-11-15T15:41:59;22.48;;;11.07;;
75655;SDS011;64252;51.094;13.714;2022-11-15T15:44:25;23.02;;;11.98;;
75655;SDS011;64252;51.094;13.714;2022-11-15T15:46:50;26.50;;;13.43;;
75655;SDS011;64252;51.094;13.714;2022-11-15T15:49:16;26.90;;;12.35;;
75655;SDS011;64252;51.094;13.714;2022-11-15T15:51:41;23.00;;;11.43;;
75655;SDS011;64252;51.094;13.714;2022-11-15T15:54:07;20.25;;;9.93;;
75655;SDS011;64252;51.094;13.714;2022-11-15T15:56:32;25.05;;;12.18;;
75655;SDS011;64252;51.094;13.714;2022-11-15T15:58:58;24.58;;;12.20;;
75655;SDS011;64252;51.094;13.714;2022-11-15T16:01:23;31.67;;;15.05;;
75655;SDS011;64252;51.094;13.714;2022-11-15T16:03:49;26.27;;;13.43;;
75655;SDS011;64252;51.094;13.714;2022-11-15T16:06:32;27.67;;;12.88;;
75655;SDS011;64252;51.094;13.714;2022-11-15T16:09:01;22.33;;;11.40;;
75655;SDS011;64252;51.094;13.714;2022-11-15T16:11:27;23.27;;;11.48;;
75655;SDS011;64252;51.094;13.714;2022-11-15T16:13:52;25.80;;;12.57;;
75655;SDS011;64252;51.094;13.714;2022-11-15T16:16:18;24.45;;;12.10;;
75655;SDS011;64252;51.094;13.714;2022-11-15T16:18:46;27.85;;;13.07;;
75655;SDS011;64252;51.094;13.714;2022-11-15T16:21:11;28.13;;;13.52;;
75655;SDS011;64252;51.094;13.714;2022-11-15T16:23:37;22.92;;;11.57;;
75655;SDS011;64252;51.094;13.714;2022-11-15T16:26:04;27.15;;;13.40;;
75655;SDS011;64252;51.094;13.714;2022-11-15T16:28:50;26.92;;;13.30;;
75655;SDS011;64252;51.094;13.714;2022-11-15T16:31:16;27.75;;;14.27;;
75655;SDS011;64252;51.094;13.714;2022-11-15T16:33:43;24.42;;;12.27;;
75655;SDS011;64252;51.094;13.714;2022-11-15T16:36:19;25.42;;;12.10;;
75655;SDS011;64252;51.094;13.714;2022-11-15T16:38:47;25.98;;;12.85;;
75655;SDS011;64252;51.094;13.714;2022-11-15T16:41:12;33.83;;;14.55;;
75655;SDS011;64252;51.094;13.714;2022-11-15T16:43:39;24.75;;;11.90;;
75655;SDS011;64252;51.094;13.714;2022-11-15T16:48:59;26.10;;;12.23;;
75655;SDS011;64252;51.094;13.714;2022-11-15T16:51:24;27.55;;;13.68;;
75655;SDS011;64252;51.094;13.714;2022-11-15T16:53:50;27.60;;;14.43;;
75655;SDS011;64252;51.094;13.714;2022-11-15T16:56:21;30.98;;;15.25;;
75655;SDS011;64252;51.094;13.714;2022-11-15T16:58:51;31.42;;;15.57;;
75655;SDS011;64252;51.094;13.714;2022-11-15T17:01:22;38.70;;;17.92;;
75655;SDS011;64252;51.094;13.714;2022-11-15T17:03:49;27.67;;;14.43;;
75655;SDS011;64252;51.094;13.714;2022-11-15T17:06:14;28.02;;;14.27;;
75655;SDS011;64252;51.094;13.714;2022-11-15T17:12:29;25.05;;;12.82;;
75655;SDS011;64252;51.094;13.714;2022-11-15T17:14:55;36.08;;;17.15;;
75655;SDS011;64252;51.094;13.714;2022-11-15T17:17:21;34.38;;;14.25;;
75655;SDS011;64252;51.094;13.714;2022-11-15T17:19:47;35.00;;;17.30;;
75655;SDS011;64252;51.094;13.714;2022-11-15T17:22:12;34.88;;;17.23;;
75655;SDS011;64252;51.094;13.714;2022-11-15T17:24:38;29.92;;;14.63;;
75655;SDS011;64252;51.094;13.714;2022-11-15T17:27:04;26.80;;;13.35;;
75655;SDS011;64252;51.094;13.714;2022-11-15T17:29:29;27.77;;;12.38;;
75655;SDS011;64252;51.094;13.714;2022-11-15T17:31:55;31.05;;;15.45;;
75655;SDS011;64252;51.094;13.714;2022-11-15T17:34:20;31.80;;;13.25;;
75655;SDS011;64252;51.094;13.714;2022-11-15T17:36:47;30.20;;;15.00;;